Time;durP1;ratioP1;P1;durP2;ratioP2;P2;SDS_P1;SDS_P2;PMS_P1;PMS_P2;Temp;Humidity;BMP_temperature;BMP_pressure;BME280_temperature;BME280_humidity;BME280_pressure;Samples;Min_cycle;Max_cycle;Signal;HPM_P1;HPM_P2
2023/01/29 00:01:57;;;;;;;2.38;2.17;;;21.80;49.70;;;;;;5090962;28;20256;-64
2023/01/29 00:04:45;;;;;;;2.95;2.40;;;21.70;49.70;;;;;;5090984;28;20196;-64
2023/01/29 00:07:33;;;;;;;2.63;1.50;;;21.70;49.70;;;;;;5091978;28;20200;-62
2023/01/29 00:10:23;;;;;;;2.10;1.90;;;21.70;49.80;;;;;;5090565;28;20301;-64
2023/01/29 00:13:11;;;;;;;2.00;1.90;;;21.70;49.70;;;;;;5090968;28;20361;-64
2023/01/29 00:16:00;;;;;;;1.90;1.70;;;21.70;49.80;;;;;;5090987;28;20202;-63
2023/01/29 00:18:48;;;;;;;1.92;1.83;;;22.00;53.40;;;;;;5090845;28;20733;-62
2023/01/29 00:21:36;;;;;;;2.03;1.83;;;21.70;49.80;;;;;;5090920;28;20277;-62
2023/01/29 00:24:24;;;;;;;3.05;1.85;;;21.70;49.70;;;;;;5093934;28;20223;-62
2023/01/29 00:27:14;;;;;;;1.95;1.85;;;21.70;49.80;;;;;;5094545;28;20753;-62
2023/01/29 00:30:11;;;;;;;1.85;1.75;;;21.70;49.80;;;;;;5094412;28;20227;-63
2023/01/29 00:33:00;;;;;;;1.92;1.83;;;21.70;49.80;;;;;;5095081;28;20668;-63
2023/01/29 00:35:48;;;;;;;1.90;1.80;;;21.70;49.80;;;;;;5095344;28;20222;-63
2023/01/29 00:38:37;;;;;;;1.95;1.77;;;21.60;53.00;;;;;;5094426;28;20574;-63
2023/01/29 00:47:39;;;;;;;2.30;2.10;;;21.70;49.70;;;;;;5093023;28;20759;-62
2023/01/29 00:50:27;;;;;;;1.95;1.83;;;21.70;49.60;;;;;;5093917;28;20637;-63
2023/01/29 00:53:15;;;;;;;2.58;2.38;;;21.60;49.70;;;;;;5094375;28;20590;-63
2023/01/29 00:56:04;;;;;;;3.83;1.90;;;21.60;49.70;;;;;;5094255;28;20196;-63
2023/01/29 00:58:52;;;;;;;2.38;2.22;;;21.80;53.60;;;;;;5093500;28;20243;-63
2023/01/29 01:04:47;;;;;;;4.82;2.53;;;21.60;49.90;;;;;;5093351;28;20695;-62
2023/01/29 01:07:35;;;;;;;2.55;2.35;;;21.70;49.90;;;;;;5092542;28;20196;-64
2023/01/29 01:10:25;;;;;;;2.10;1.90;;;21.70;49.90;;;;;;5093967;28;20216;-64
2023/01/29 01:13:13;;;;;;;2.13;1.98;;;21.80;49.90;;;;;;5093673;28;20203;-64
2023/01/29 01:16:02;;;;;;;2.60;2.28;;;21.80;49.80;;;;;;5094904;28;20196;-64
2023/01/29 01:18:51;;;;;;;2.55;2.40;;;21.70;53.00;;;;;;5093701;28;20246;-64
2023/01/29 01:21:44;;;;;;;2.53;2.35;;;21.80;49.70;;;;;;5092241;28;20302;-64
2023/01/29 01:24:32;;;;;;;3.33;2.38;;;21.90;49.80;;;;;;5094200;28;20281;-62
2023/01/29 01:27:20;;;;;;;1.88;1.77;;;21.90;49.70;;;;;;5092232;28;20275;-62
2023/01/29 01:30:11;;;;;;;2.45;2.03;;;21.80;49.60;;;;;;5092391;28;20590;-63
2023/01/29 01:32:59;;;;;;;2.10;1.90;;;21.80;49.40;;;;;;5093205;28;20321;-62
2023/01/29 01:35:48;;;;;;;2.60;2.40;;;21.90;49.70;;;;;;5092496;28;20315;-63
2023/01/29 01:38:43;;;;;;;2.83;2.25;;;21.70;49.40;;;;;;5093165;28;20199;-63
2023/01/29 01:41:31;;;;;;;2.63;2.40;;;21.70;49.60;;;;;;5092145;28;20585;-62
2023/01/29 01:44:58;;;;;;;2.83;2.28;;;21.80;49.60;;;;;;5093309;28;20239;-63
2023/01/29 01:47:48;;;;;;;3.45;2.50;;;21.70;49.60;;;;;;5093140;28;20204;-62
2023/01/29 01:50:42;;;;;;;3.70;2.38;;;21.20;49.30;;;;;;5092610;28;20306;-63
2023/01/29 01:53:37;;;;;;;2.75;2.30;;;21.70;49.80;;;;;;5092389;28;20283;-63
2023/01/29 01:56:39;;;;;;;2.80;2.60;;;21.60;49.70;;;;;;5094208;28;20232;-62
2023/01/29 01:59:27;;;;;;;2.60;2.40;;;21.60;49.60;;;;;;5112854;28;20223;-62
2023/01/29 02:11:41;;;;;;;2.30;2.10;;;21.70;49.80;;;;;;5105165;28;20321;-63
2023/01/29 02:14:30;;;;;;;3.08;2.28;;;21.70;49.80;;;;;;5093237;28;20295;-62
2023/01/29 02:17:20;;;;;;;2.47;2.10;;;21.70;49.90;;;;;;5092861;28;20200;-63
2023/01/29 02:20:14;;;;;;;2.22;1.98;;;21.70;49.80;;;;;;5105515;27;20234;-63
2023/01/29 02:23:36;;;;;;;2.15;1.90;;;21.70;49.80;;;;;;5113479;28;20240;-63
2023/01/29 02:26:53;;;;;;;2.15;1.98;;;21.70;49.80;;;;;;5033725;28;20210;-62
2023/01/29 02:29:52;;;;;;;2.05;1.95;;;21.70;49.80;;;;;;5111174;28;20294;-63
2023/01/29 02:32:53;;;;;;;2.28;2.17;;;21.70;49.80;;;;;;5112191;28;20203;-63
2023/01/29 02:35:43;;;;;;;2.05;1.95;;;21.70;49.80;;;;;;5112544;28;20226;-64
2023/01/29 02:38:40;;;;;;;2.10;2.00;;;21.70;49.90;;;;;;5111870;28;20231;-64
2023/01/29 02:41:34;;;;;;;1.95;1.80;;;21.60;49.80;;;;;;5112124;28;20278;-64
2023/01/29 02:44:28;;;;;;;2.10;1.90;;;21.60;49.90;;;;;;5111671;28;20196;-64
2023/01/29 02:47:22;;;;;;;2.20;1.85;;;21.60;49.90;;;;;;5111472;28;20223;-64
2023/01/29 02:50:18;;;;;;;2.42;1.98;;;21.70;50.00;;;;;;5111667;28;20223;-64
2023/01/29 02:53:12;;;;;;;2.42;2.20;;;21.70;50.00;;;;;;5112356;28;20200;-64
2023/01/29 02:56:07;;;;;;;2.22;2.13;;;21.60;49.90;;;;;;5111494;28;20304;-64
2023/01/29 02:59:01;;;;;;;2.58;2.38;;;21.80;55.30;;;;;;5091600;28;20239;-64
2023/01/29 03:01:53;;;;;;;3.72;2.28;;;21.70;50.00;;;;;;5091171;28;20239;-64
2023/01/29 03:04:46;;;;;;;2.15;2.03;;;21.80;50.00;;;;;;5090709;28;20198;-64
2023/01/29 03:07:45;;;;;;;2.53;2.22;;;21.80;50.00;;;;;;5091535;28;20618;-63
2023/01/29 03:10:37;;;;;;;2.88;2.70;;;21.80;49.90;;;;;;5090361;28;20292;-64
2023/01/29 03:13:31;;;;;;;2.17;1.85;;;21.90;49.90;;;;;;5090319;28;20269;-64
2023/01/29 03:16:25;;;;;;;2.28;2.08;;;21.80;49.80;;;;;;5090755;28;20832;-64
2023/01/29 03:19:16;;;;;;;3.60;2.30;;;21.80;49.80;;;;;;5089757;28;20579;-64
2023/01/29 03:22:07;;;;;;;2.40;2.20;;;21.80;49.80;;;;;;5091011;28;20353;-64
2023/01/29 03:34:27;;;;;;;2.35;1.85;;;21.70;49.90;;;;;;5090231;28;20207;-64
2023/01/29 03:37:21;;;;;;;2.30;2.20;;;21.70;50.00;;;;;;5090377;28;20203;-64
2023/01/29 03:40:11;;;;;;;1.92;1.83;;;21.60;50.00;;;;;;5090327;28;20235;-64
2023/01/29 03:43:09;;;;;;;2.30;2.20;;;21.60;50.10;;;;;;5091081;28;20361;-64
2023/01/29 03:46:03;;;;;;;2.20;2.10;;;21.60;50.00;;;;;;5091059;28;20283;-64
2023/01/29 03:48:58;;;;;;;2.72;2.53;;;21.80;53.90;;;;;;5089840;28;20600;-62
2023/01/29 03:51:55;;;;;;;2.00;1.90;;;21.60;50.10;;;;;;5091196;28;20214;-62
2023/01/29 03:54:56;;;;;;;1.98;1.80;;;21.60;50.00;;;;;;5090035;28;20207;-61
2023/01/29 03:57:49;;;;;;;1.83;1.73;;;21.70;50.10;;;;;;5102984;28;20260;-63
2023/01/29 04:00:41;;;;;;;2.92;2.42;;;21.70;50.10;;;;;;5114440;28;20640;-62
2023/01/29 04:03:34;;;;;;;2.17;2.08;;;21.70;50.00;;;;;;5114041;28;20309;-62
2023/01/29 04:06:25;;;;;;;1.88;1.73;;;21.80;50.10;;;;;;5115285;28;20195;-63
2023/01/29 04:09:20;;;;;;;3.05;2.72;;;21.80;49.40;;;;;;5114347;28;20219;-63
2023/01/29 04:12:13;;;;;;;2.30;2.20;;;21.80;49.90;;;;;;5114787;28;20207;-63
2023/01/29 04:15:03;;;;;;;1.92;1.80;;;21.80;49.90;;;;;;5114721;28;20256;-63
2023/01/29 04:17:53;;;;;;;2.72;2.53;;;21.80;49.90;;;;;;5116459;27;20622;-63
2023/01/29 04:20:41;;;;;;;2.55;2.10;;;21.70;49.90;;;;;;5098030;27;20281;-63
2023/01/29 04:23:29;;;;;;;3.50;2.08;;;21.70;50.00;;;;;;5094751;28;20232;-63
2023/01/29 04:26:37;;;;;;;2.47;2.38;;;21.70;50.00;;;;;;5094492;28;20261;-65
2023/01/29 04:29:39;;;;;;;2.92;2.63;;;21.60;50.00;;;;;;5094228;28;20211;-62
2023/01/29 04:32:31;;;;;;;2.40;2.20;;;21.60;50.20;;;;;;5094703;28;20279;-62
2023/01/29 04:35:29;;;;;;;2.63;2.42;;;21.70;50.20;;;;;;5094632;28;20303;-62
2023/01/29 04:38:27;;;;;;;4.60;2.15;;;21.60;50.10;;;;;;5094327;28;20357;-64
2023/01/29 04:41:21;;;;;;;2.97;2.38;;;21.60;49.60;;;;;;5094817;28;20677;-62
2023/01/29 04:44:18;;;;;;;2.67;2.22;;;21.60;50.10;;;;;;5094397;28;20290;-62
2023/01/29 04:47:19;;;;;;;2.53;2.33;;;21.60;50.20;;;;;;5094315;28;20317;-62
2023/01/29 04:50:16;;;;;;;2.20;2.00;;;21.60;50.30;;;;;;5093728;28;20572;-62
2023/01/29 04:53:13;;;;;;;2.97;2.15;;;21.70;50.30;;;;;;5094158;28;20219;-62
2023/01/29 04:56:08;;;;;;;2.55;2.22;;;21.70;50.30;;;;;;5094228;28;20761;-63
2023/01/29 04:59:01;;;;;;;2.65;2.45;;;21.80;50.20;;;;;;5093156;28;20215;-62
2023/01/29 05:01:49;;;;;;;2.92;2.20;;;21.80;50.20;;;;;;5093976;28;20199;-64
2023/01/29 05:04:42;;;;;;;3.15;2.15;;;21.80;50.30;;;;;;5093987;28;20579;-62
2023/01/29 05:07:33;;;;;;;3.25;2.95;;;21.80;50.30;;;;;;5093690;28;20196;-63
2023/01/29 05:10:23;;;;;;;2.70;2.22;;;21.80;50.10;;;;;;5093108;28;20244;-62
2023/01/29 05:13:14;;;;;;;2.55;2.38;;;21.80;50.10;;;;;;5092769;28;20227;-62
2023/01/29 05:16:07;;;;;;;2.38;2.17;;;21.80;50.10;;;;;;5092580;28;20302;-62
2023/01/29 05:18:55;;;;;;;2.42;2.22;;;21.70;55.20;;;;;;5093613;28;20203;-64
2023/01/29 05:21:47;;;;;;;2.95;2.75;;;21.80;50.20;;;;;;5094310;28;20207;-62
2023/01/29 05:24:36;;;;;;;2.63;2.42;;;21.80;50.20;;;;;;5093544;28;20611;-62
2023/01/29 05:30:39;;;;;;;2.55;2.05;;;21.90;50.20;;;;;;5091967;28;20273;-62
2023/01/29 05:33:29;;;;;;;2.47;2.28;;;21.80;50.20;;;;;;5093191;28;20200;-62
2023/01/29 05:36:17;;;;;;;2.97;2.10;;;21.80;50.20;;;;;;5093005;28;20436;-62
2023/01/29 05:39:06;;;;;;;2.65;2.25;;;21.80;50.30;;;;;;5092031;28;20571;-62
2023/01/29 05:41:54;;;;;;;2.83;2.50;;;21.80;50.30;;;;;;5093117;28;20230;-62
2023/01/29 05:44:42;;;;;;;3.17;2.83;;;21.80;50.30;;;;;;5093305;28;20279;-62
2023/01/29 05:47:30;;;;;;;2.67;2.45;;;21.80;50.40;;;;;;5093608;28;20207;-62
2023/01/29 05:50:18;;;;;;;3.08;2.55;;;21.80;50.40;;;;;;5093944;28;20309;-63
2023/01/29 05:53:07;;;;;;;2.53;2.33;;;21.80;50.40;;;;;;5092750;28;20203;-64
2023/01/29 05:55:56;;;;;;;3.13;2.85;;;21.80;50.40;;;;;;5093502;28;20273;-64
2023/01/29 05:58:45;;;;;;;3.25;2.33;;;21.80;50.40;;;;;;5093317;28;20196;-63
2023/01/29 06:01:33;;;;;;;2.92;2.72;;;21.70;50.50;;;;;;5092983;28;20250;-63
2023/01/29 06:04:21;;;;;;;2.80;2.58;;;21.80;50.40;;;;;;5092260;28;20248;-63
2023/01/29 06:07:09;;;;;;;4.38;2.92;;;21.80;51.20;;;;;;5093292;28;20292;-63
2023/01/29 06:09:57;;;;;;;3.10;2.90;;;21.80;50.50;;;;;;5092190;28;20294;-64
2023/01/29 06:12:46;;;;;;;2.45;2.28;;;21.80;50.50;;;;;;5092201;28;20658;-63
2023/01/29 06:15:34;;;;;;;3.58;2.58;;;21.70;50.50;;;;;;5091891;28;20551;-63
2023/01/29 06:18:22;;;;;;;2.17;2.08;;;21.60;50.40;;;;;;5091606;28;20279;-64
2023/01/29 06:21:13;;;;;;;2.70;2.50;;;21.60;50.60;;;;;;5090608;28;20236;-64
2023/01/29 06:24:01;;;;;;;3.17;2.38;;;21.60;50.70;;;;;;5092723;28;20204;-64
2023/01/29 06:26:49;;;;;;;2.45;2.20;;;21.50;50.80;;;;;;5092949;28;20207;-64
2023/01/29 06:29:38;;;;;;;2.90;2.70;;;21.50;50.90;;;;;;5091348;28;20767;-64
2023/01/29 06:32:27;;;;;;;3.72;2.67;;;21.50;50.80;;;;;;5091248;28;20672;-64
2023/01/29 06:35:16;;;;;;;2.85;2.65;;;21.60;50.80;;;;;;5091106;28;20211;-64
2023/01/29 06:38:04;;;;;;;2.55;2.35;;;21.60;50.80;;;;;;5092937;28;20302;-64
2023/01/29 06:40:52;;;;;;;3.33;2.40;;;21.60;50.90;;;;;;5090708;28;20767;-64
2023/01/29 06:43:43;;;;;;;2.50;2.30;;;21.60;50.80;;;;;;5091599;28;20277;-64
2023/01/29 06:46:33;;;;;;;2.70;2.50;;;21.70;50.90;;;;;;5092046;28;20207;-64
2023/01/29 06:49:22;;;;;;;2.63;2.20;;;21.80;50.90;;;;;;5090702;28;20652;-64
2023/01/29 06:52:10;;;;;;;2.50;2.30;;;21.80;50.80;;;;;;5092685;28;20196;-64
2023/01/29 06:54:58;;;;;;;2.85;2.55;;;21.80;50.70;;;;;;5092078;28;20701;-64
2023/01/29 06:57:46;;;;;;;2.92;2.72;;;21.80;50.60;;;;;;5103125;28;20223;-64
2023/01/29 07:00:34;;;;;;;2.17;2.08;;;21.80;50.70;;;;;;5111899;28;20723;-64
2023/01/29 07:03:23;;;;;;;2.97;2.67;;;21.80;50.70;;;;;;5092403;28;20196;-64
2023/01/29 07:06:11;;;;;;;2.25;2.05;;;21.80;50.80;;;;;;5091594;28;20227;-64
2023/01/29 07:09:00;;;;;;;2.70;2.50;;;21.80;50.80;;;;;;5090991;28;20215;-64
2023/01/29 07:11:48;;;;;;;2.92;2.63;;;21.80;50.80;;;;;;5091543;28;20211;-64
2023/01/29 07:14:36;;;;;;;2.63;2.35;;;21.70;50.80;;;;;;5092060;28;20225;-64
2023/01/29 07:17:24;;;;;;;3.55;2.78;;;21.80;50.90;;;;;;5091683;28;20223;-63
2023/01/29 07:20:13;;;;;;;2.85;2.25;;;21.80;50.90;;;;;;5092440;28;20224;-63
2023/01/29 07:23:02;;;;;;;2.42;2.22;;;21.80;50.90;;;;;;5091563;28;20204;-63
2023/01/29 07:25:51;;;;;;;2.88;2.58;;;21.70;51.00;;;;;;5092661;28;20205;-63
2023/01/29 07:28:40;;;;;;;3.47;3.17;;;21.60;50.70;;;;;;5092799;28;20613;-63
2023/01/29 07:31:28;;;;;;;2.85;2.45;;;21.70;51.00;;;;;;5089581;28;20199;-64
2023/01/29 07:34:16;;;;;;;2.70;2.47;;;21.70;51.10;;;;;;5094474;28;20203;-64
2023/01/29 07:37:05;;;;;;;2.90;2.58;;;21.80;51.10;;;;;;5094420;28;20276;-64
2023/01/29 07:39:53;;;;;;;2.30;2.20;;;21.70;51.10;;;;;;5096367;28;20259;-62
2023/01/29 07:42:42;;;;;;;2.80;2.60;;;21.70;51.00;;;;;;5095468;28;20204;-62
2023/01/29 07:45:33;;;;;;;3.17;2.42;;;21.80;51.10;;;;;;5096639;28;20570;-62
2023/01/29 07:48:21;;;;;;;2.65;2.45;;;21.80;51.10;;;;;;5095228;28;20258;-62
2023/01/29 07:51:09;;;;;;;2.78;2.58;;;21.80;51.10;;;;;;5095055;28;20192;-62
2023/01/29 07:53:58;;;;;;;2.72;2.53;;;21.80;51.10;;;;;;5095207;28;20337;-62
2023/01/29 07:56:46;;;;;;;1.88;1.77;;;21.80;51.10;;;;;;5099040;28;20609;-63
2023/01/29 07:59:34;;;;;;;3.33;2.35;;;21.80;51.10;;;;;;5114564;28;20254;-63
2023/01/29 08:02:22;;;;;;;2.47;1.90;;;21.90;51.20;;;;;;5114723;28;20191;-63
2023/01/29 08:05:10;;;;;;;2.70;2.50;;;21.80;51.10;;;;;;5115992;28;20191;-63
2023/01/29 08:07:59;;;;;;;2.35;2.17;;;21.80;51.10;;;;;;5115299;28;20797;-63
2023/01/29 08:10:55;;;;;;;2.50;2.30;;;21.80;51.10;;;;;;5114948;28;20227;-63
2023/01/29 08:13:44;;;;;;;3.78;3.13;;;21.80;51.10;;;;;;5115297;28;20199;-62
2023/01/29 08:16:32;;;;;;;2.30;2.10;;;21.80;51.10;;;;;;5114254;28;20214;-64
2023/01/29 08:19:20;;;;;;;4.15;2.70;;;21.80;51.20;;;;;;5114716;28;20229;-63
2023/01/29 08:22:08;;;;;;;2.08;1.98;;;21.80;51.20;;;;;;5115079;28;20242;-62
2023/01/29 08:24:56;;;;;;;4.38;3.22;;;21.70;51.10;;;;;;5115664;28;20195;-63
2023/01/29 08:27:58;;;;;;;2.88;2.67;;;21.70;51.20;;;;;;5114353;28;20188;-62
2023/01/29 08:30:46;;;;;;;3.38;2.60;;;21.70;51.20;;;;;;5114557;28;20223;-62
2023/01/29 08:33:34;;;;;;;2.50;2.30;;;21.60;51.20;;;;;;5114957;28;20203;-64
2023/01/29 08:36:26;;;;;;;2.90;2.70;;;21.60;51.40;;;;;;5115150;28;20210;-64
2023/01/29 08:39:14;;;;;;;6.10;2.78;;;21.60;51.30;;;;;;5114049;28;20226;-64
2023/01/29 08:42:02;;;;;;;3.17;2.47;;;21.60;51.40;;;;;;5114151;28;20691;-64
2023/01/29 08:44:51;;;;;;;3.05;2.67;;;21.60;51.40;;;;;;5114270;28;20274;-64
2023/01/29 08:47:45;;;;;;;2.00;1.88;;;21.60;51.40;;;;;;5114831;28;20187;-62
2023/01/29 08:50:34;;;;;;;3.00;2.70;;;21.60;51.50;;;;;;5114993;28;20707;-63
2023/01/29 08:53:23;;;;;;;2.03;1.92;;;21.60;51.50;;;;;;5114690;28;20560;-62
2023/01/29 08:56:11;;;;;;;2.50;2.30;;;21.70;51.50;;;;;;5114626;28;20616;-64
2023/01/29 08:58:59;;;;;;;2.20;2.00;;;21.70;51.50;;;;;;5095088;28;20224;-64
2023/01/29 09:01:49;;;;;;;2.67;2.47;;;21.70;51.40;;;;;;5094141;28;20282;-62
2023/01/29 09:04:37;;;;;;;2.95;2.20;;;21.80;51.50;;;;;;5092905;28;20687;-64
2023/01/29 09:07:25;;;;;;;2.38;2.15;;;21.80;51.40;;;;;;5093986;28;20237;-64
2023/01/29 09:10:13;;;;;;;2.33;2.22;;;21.90;51.40;;;;;;5094052;28;20265;-64
2023/01/29 09:13:01;;;;;;;2.33;2.17;;;21.90;51.40;;;;;;5092912;28;20200;-64
2023/01/29 09:15:49;;;;;;;2.67;2.47;;;21.90;51.40;;;;;;5093602;28;20203;-63
2023/01/29 09:18:39;;;;;;;2.72;2.00;;;21.70;51.10;;;;;;5093326;28;20301;-64
2023/01/29 09:21:27;;;;;;;3.83;2.65;;;21.90;51.40;;;;;;5091952;28;20341;-63
2023/01/29 09:24:15;;;;;;;4.25;2.30;;;21.90;51.40;;;;;;5092945;28;20202;-64
2023/01/29 09:27:04;;;;;;;2.03;1.92;;;21.90;51.40;;;;;;5093500;28;20235;-64
2023/01/29 09:29:52;;;;;;;3.60;2.67;;;21.90;51.40;;;;;;5091531;28;20291;-62
2023/01/29 09:32:40;;;;;;;2.55;2.35;;;21.90;51.40;;;;;;5092685;28;20283;-62
2023/01/29 09:35:44;;;;;;;3.45;3.15;;;21.80;51.40;;;;;;5093152;28;20243;-64
2023/01/29 09:38:32;;;;;;;3.15;2.47;;;21.80;51.40;;;;;;5093143;28;20308;-64
2023/01/29 09:41:33;;;;;;;2.45;2.13;;;21.80;51.50;;;;;;5093413;28;20195;-64
2023/01/29 09:44:30;;;;;;;2.22;2.03;;;21.70;51.60;;;;;;5093932;28;20208;-63
2023/01/29 09:47:19;;;;;;;2.58;2.38;;;21.70;51.60;;;;;;5093386;28;20203;-63
2023/01/29 09:50:13;;;;;;;2.53;2.33;;;21.70;51.60;;;;;;5093275;28;20221;-64
2023/01/29 09:53:11;;;;;;;2.17;2.08;;;21.70;51.70;;;;;;5091787;28;20261;-63
2023/01/29 09:56:04;;;;;;;2.35;2.25;;;21.80;51.70;;;;;;5091188;28;20261;-64
2023/01/29 09:58:52;;;;;;;2.20;2.00;;;21.70;54.90;;;;;;5092260;28;20211;-63
2023/01/29 10:01:50;;;;;;;2.55;2.17;;;21.90;51.70;;;;;;5091996;28;20200;-64
2023/01/29 10:05:05;;;;;;;2.20;2.10;;;21.90;51.60;;;;;;5092345;28;20692;-64
2023/01/29 10:08:13;;;;;;;2.65;2.10;;;21.90;51.60;;;;;;5093383;28;20219;-64
2023/01/29 10:11:12;;;;;;;2.17;1.90;;;22.00;51.60;;;;;;5091154;28;20337;-64
2023/01/29 10:14:09;;;;;;;2.15;1.95;;;22.00;51.60;;;;;;5092235;28;20235;-65
2023/01/29 10:17:12;;;;;;;2.85;2.60;;;22.00;51.50;;;;;;5091587;28;20557;-63
2023/01/29 10:20:19;;;;;;;1.88;1.77;;;22.00;51.50;;;;;;5090837;28;20220;-64
2023/01/29 10:23:18;;;;;;;3.25;2.78;;;22.00;51.50;;;;;;5093150;28;20196;-63
2023/01/29 10:26:10;;;;;;;3.05;2.20;;;22.00;51.40;;;;;;5091797;28;20288;-63
2023/01/29 10:29:01;;;;;;;2.78;2.40;;;21.90;51.50;;;;;;5091684;28;20220;-63
2023/01/29 10:31:55;;;;;;;2.22;2.08;;;21.80;51.40;;;;;;5092321;28;20203;-63
2023/01/29 10:34:48;;;;;;;2.03;1.92;;;21.80;51.60;;;;;;5091512;28;20200;-63
2023/01/29 10:37:41;;;;;;;2.08;1.88;;;21.80;51.70;;;;;;5091960;28;20277;-63
2023/01/29 10:40:42;;;;;;;1.92;1.83;;;21.70;51.70;;;;;;5091095;28;20304;-62
2023/01/29 10:43:37;;;;;;;2.25;1.60;;;21.70;51.80;;;;;;5091603;28;20246;-64
2023/01/29 10:46:35;;;;;;;2.60;2.40;;;21.70;51.80;;;;;;5090382;28;20702;-63
2023/01/29 10:49:37;;;;;;;2.50;2.30;;;21.80;51.80;;;;;;5091729;28;20265;-62
2023/01/29 10:52:41;;;;;;;3.72;2.33;;;21.70;51.80;;;;;;5091725;28;20553;-64
2023/01/29 10:55:43;;;;;;;3.88;1.92;;;21.80;51.80;;;;;;5091880;28;20282;-63
2023/01/29 10:58:37;;;;;;;4.25;2.20;;;21.90;51.80;;;;;;5110301;28;20348;-63
2023/01/29 11:01:26;;;;;;;2.78;2.22;;;21.90;51.80;;;;;;5111729;28;20199;-63
2023/01/29 11:04:15;;;;;;;2.30;2.10;;;21.90;51.80;;;;;;5113089;28;20203;-63
2023/01/29 11:07:03;;;;;;;1.95;1.85;;;22.00;51.70;;;;;;5111532;28;20199;-63
2023/01/29 11:09:57;;;;;;;5.93;2.30;;;21.90;51.70;;;;;;5110982;28;20876;-63
2023/01/29 11:12:46;;;;;;;3.15;1.77;;;21.90;51.60;;;;;;5110408;28;20206;-63
2023/01/29 11:15:34;;;;;;;2.70;2.10;;;21.90;51.70;;;;;;5112189;28;20206;-63
2023/01/29 11:18:23;;;;;;;6.93;2.40;;;21.90;51.50;;;;;;5112300;28;20242;-63
2023/01/29 11:21:11;;;;;;;1.98;1.88;;;21.90;51.50;;;;;;5112278;28;20748;-63
2023/01/29 11:24:07;;;;;;;1.98;1.83;;;21.90;51.70;;;;;;5112134;28;20202;-63
2023/01/29 11:26:58;;;;;;;1.75;1.65;;;21.90;51.70;;;;;;5112698;28;20755;-63
2023/01/29 11:29:48;;;;;;;2.15;2.05;;;21.90;51.70;;;;;;5110649;28;20222;-63
2023/01/29 11:32:36;;;;;;;2.28;2.00;;;21.90;51.80;;;;;;5112517;28;20191;-63
2023/01/29 11:35:25;;;;;;;2.40;2.25;;;21.90;51.80;;;;;;5112398;28;20264;-63
2023/01/29 11:38:23;;;;;;;2.15;1.95;;;21.90;51.80;;;;;;5111575;28;20240;-63
2023/01/29 11:41:17;;;;;;;2.00;1.90;;;21.90;51.80;;;;;;5110830;28;20746;-63
2023/01/29 11:44:18;;;;;;;2.78;2.30;;;21.90;51.90;;;;;;5112447;28;20225;-63
2023/01/29 11:47:17;;;;;;;2.03;1.92;;;21.90;51.90;;;;;;5110561;28;20195;-63
2023/01/29 11:50:06;;;;;;;1.63;1.52;;;21.90;51.90;;;;;;5110599;28;20306;-63
2023/01/29 11:52:55;;;;;;;1.98;1.88;;;21.90;51.90;;;;;;5111685;28;20231;-63
2023/01/29 11:55:47;;;;;;;2.47;2.17;;;21.90;51.90;;;;;;5110968;28;20230;-63
2023/01/29 11:58:38;;;;;;;2.03;1.92;;;22.00;52.70;;;;;;5091891;28;20566;-63
2023/01/29 12:01:32;;;;;;;2.30;2.10;;;21.90;51.90;;;;;;5091046;28;20281;-63
2023/01/29 12:04:24;;;;;;;2.10;1.90;;;21.90;51.70;;;;;;5091158;28;20285;-63
2023/01/29 12:07:15;;;;;;;2.05;1.95;;;22.00;51.90;;;;;;5091150;28;20203;-63
2023/01/29 12:10:04;;;;;;;2.35;1.55;;;22.00;51.80;;;;;;5091323;28;20755;-64
2023/01/29 12:12:52;;;;;;;2.00;1.80;;;22.00;51.90;;;;;;5091120;28;20616;-63
2023/01/29 12:15:42;;;;;;;2.00;1.75;;;22.00;51.80;;;;;;5091786;28;20203;-63
2023/01/29 12:18:35;;;;;;;2.95;1.90;;;22.00;51.80;;;;;;5090881;28;20207;-62
2023/01/29 12:21:32;;;;;;;2.00;1.90;;;22.10;51.30;;;;;;5094399;28;20279;-62
2023/01/29 12:24:31;;;;;;;1.80;1.70;;;22.00;51.80;;;;;;5094495;28;20741;-64
2023/01/29 12:27:25;;;;;;;6.03;2.30;;;22.00;51.80;;;;;;5094723;28;20236;-62
2023/01/29 12:30:19;;;;;;;2.60;1.95;;;21.90;51.60;;;;;;5094128;28;20209;-63
2023/01/29 12:33:16;;;;;;;5.70;2.00;;;21.90;51.80;;;;;;5094525;28;20238;-63
2023/01/29 12:36:11;;;;;;;2.25;1.67;;;21.90;51.90;;;;;;5094508;28;20279;-63
2023/01/29 12:39:00;;;;;;;1.73;1.63;;;21.80;52.00;;;;;;5094339;28;20255;-63
2023/01/29 12:41:55;;;;;;;2.95;1.90;;;21.80;52.10;;;;;;5095229;28;20524;-63
2023/01/29 12:44:47;;;;;;;2.47;1.90;;;21.80;52.10;;;;;;5094471;28;20292;-63
2023/01/29 12:47:41;;;;;;;2.53;2.33;;;21.80;52.00;;;;;;5094101;28;20192;-63
2023/01/29 12:50:33;;;;;;;1.75;1.55;;;21.80;52.10;;;;;;5093784;28;20223;-63
2023/01/29 12:53:28;;;;;;;2.05;1.92;;;21.80;52.10;;;;;;5094204;28;20203;-63
2023/01/29 12:56:26;;;;;;;1.60;1.50;;;21.80;52.10;;;;;;5094200;28;20245;-62
2023/01/29 12:59:19;;;;;;;2.58;2.38;;;21.90;52.20;;;;;;5093745;28;20696;-63
2023/01/29 13:02:18;;;;;;;2.50;1.73;;;21.90;52.20;;;;;;5093587;28;20196;-64
2023/01/29 13:05:18;;;;;;;1.50;1.30;;;21.90;52.10;;;;;;5093983;28;20200;-63
2023/01/29 13:08:09;;;;;;;1.60;1.50;;;22.00;52.20;;;;;;5093294;28;20741;-63
2023/01/29 13:11:02;;;;;;;2.25;1.90;;;22.00;52.10;;;;;;5093486;28;20228;-63
2023/01/29 13:13:56;;;;;;;3.05;1.70;;;22.00;51.90;;;;;;5092795;28;20250;-63
2023/01/29 13:16:50;;;;;;;1.67;1.58;;;22.00;51.90;;;;;;5093163;28;20302;-63
2023/01/29 13:19:42;;;;;;;2.00;1.75;;;22.00;51.90;;;;;;5093426;28;20251;-63
2023/01/29 13:22:35;;;;;;;2.35;1.85;;;22.00;51.90;;;;;;5093656;28;20231;-63
2023/01/29 13:25:23;;;;;;;2.13;1.83;;;22.00;51.90;;;;;;5092725;28;20672;-63
2023/01/29 13:28:17;;;;;;;1.77;1.67;;;22.00;51.90;;;;;;5093015;28;20592;-63
2023/01/29 13:31:21;;;;;;;2.00;1.90;;;22.00;52.00;;;;;;5093642;28;20282;-63
2023/01/29 13:34:14;;;;;;;1.83;1.73;;;22.00;51.90;;;;;;5092602;28;20656;-63
2023/01/29 13:37:04;;;;;;;2.22;1.40;;;22.00;52.00;;;;;;5093473;28;20203;-63
2023/01/29 13:39:53;;;;;;;2.60;2.38;;;22.00;51.90;;;;;;5092634;28;20716;-63
2023/01/29 13:42:45;;;;;;;2.33;2.13;;;22.00;51.90;;;;;;5093422;28;20279;-63
2023/01/29 13:45:36;;;;;;;2.05;1.95;;;21.90;51.80;;;;;;5092212;28;20204;-63
2023/01/29 13:48:27;;;;;;;2.05;1.88;;;22.00;52.00;;;;;;5092680;28;20627;-63
2023/01/29 13:51:19;;;;;;;3.25;2.72;;;22.00;52.00;;;;;;5092291;28;20212;-63
2023/01/29 13:54:17;;;;;;;2.03;1.92;;;22.00;52.00;;;;;;5093100;28;20200;-63
2023/01/29 13:57:05;;;;;;;7.65;2.17;;;22.10;52.00;;;;;;5098033;28;20244;-64
2023/01/29 13:59:55;;;;;;;2.65;1.90;;;22.00;51.90;;;;;;5113807;28;20770;-63
2023/01/29 14:02:43;;;;;;;4.05;2.47;;;22.00;52.00;;;;;;5113745;28;20282;-63
2023/01/29 14:05:43;;;;;;;3.92;2.00;;;22.00;52.00;;;;;;5113185;28;20202;-63
2023/01/29 14:08:38;;;;;;;2.53;2.33;;;21.90;52.00;;;;;;5113203;28;20690;-63
2023/01/29 14:11:36;;;;;;;2.72;2.45;;;21.90;52.10;;;;;;5112405;28;20199;-62
2023/01/29 14:15:04;;;;;;;3.35;1.98;;;21.90;52.20;;;;;;5113117;28;20730;-63
2023/01/29 14:18:12;;;;;;;1.90;1.80;;;21.90;52.20;;;;;;5113614;28;20199;-63
2023/01/29 14:21:04;;;;;;;2.40;2.20;;;21.90;52.20;;;;;;5111561;28;20308;-63
2023/01/29 14:23:53;;;;;;;2.25;1.80;;;21.90;52.20;;;;;;5112021;28;20355;-63
2023/01/29 14:26:44;;;;;;;2.38;2.17;;;21.90;52.30;;;;;;5112692;28;20207;-63
2023/01/29 14:29:38;;;;;;;2.92;2.40;;;21.90;52.30;;;;;;5111452;28;20311;-63
2023/01/29 14:32:26;;;;;;;2.33;2.03;;;21.90;52.30;;;;;;5111917;28;20195;-63
2023/01/29 14:35:19;;;;;;;2.28;2.08;;;22.00;52.40;;;;;;5112171;28;20195;-63
2023/01/29 14:38:14;;;;;;;3.53;2.47;;;22.00;52.30;;;;;;5113049;28;20199;-64
2023/01/29 14:41:08;;;;;;;2.00;1.90;;;21.90;52.20;;;;;;5111378;28;20219;-63
2023/01/29 14:44:33;;;;;;;2.80;2.53;;;22.00;52.40;;;;;;5111718;28;20203;-63
2023/01/29 14:47:42;;;;;;;2.13;2.00;;;22.00;52.30;;;;;;5113011;28;20247;-63
2023/01/29 14:50:46;;;;;;;2.65;2.08;;;22.10;52.40;;;;;;5113004;27;20245;-64
2023/01/29 14:53:53;;;;;;;2.10;2.00;;;22.10;52.30;;;;;;5113079;28;20198;-64
2023/01/29 14:56:46;;;;;;;2.47;2.13;;;22.10;52.30;;;;;;5108279;28;20199;-64
2023/01/29 14:59:37;;;;;;;2.35;1.92;;;22.10;52.30;;;;;;5092616;28;20749;-63
2023/01/29 15:02:32;;;;;;;2.10;1.98;;;22.10;52.30;;;;;;5091678;28;20199;-63
2023/01/29 15:05:24;;;;;;;1.88;1.77;;;22.10;52.30;;;;;;5091455;28;20204;-63
2023/01/29 15:08:22;;;;;;;3.00;2.35;;;22.10;52.30;;;;;;5091620;28;20196;-64
2023/01/29 15:11:35;;;;;;;2.50;1.90;;;22.10;52.30;;;;;;5092029;28;20201;-63
2023/01/29 15:14:32;;;;;;;2.15;1.90;;;22.10;52.40;;;;;;5091686;28;20207;-63
2023/01/29 15:17:28;;;;;;;1.98;1.77;;;22.10;52.40;;;;;;5091756;28;20340;-63
2023/01/29 15:20:31;;;;;;;2.33;2.10;;;22.00;52.40;;;;;;5092021;28;20311;-63
2023/01/29 15:23:26;;;;;;;1.75;1.65;;;22.00;52.40;;;;;;5091876;28;20203;-63
2023/01/29 15:26:18;;;;;;;2.33;2.13;;;22.00;52.50;;;;;;5091423;28;20283;-62
2023/01/29 15:29:06;;;;;;;3.28;2.38;;;22.00;52.50;;;;;;5091293;28;20223;-62
2023/01/29 15:31:56;;;;;;;2.53;2.33;;;22.00;52.50;;;;;;5091501;28;20685;-63